createdAt,value
2018-12-15T00:02:01.239Z,22.2
2018-12-15T00:07:01.241Z,23.2
2018-12-15T00:12:01.239Z,23.9
2018-12-15T00:22:01.248Z,23.5
2018-12-15T00:27:01.243Z,22.4
2018-12-15T00:32:01.244Z,21.5
2018-12-15T00:37:01.244Z,20.4
2018-12-15T00:47:01.246Z,20.5
2018-12-15T00:52:06.256Z,19.6
2018-12-15T00:57:01.251Z,19.4
2018-12-15T01:02:01.569Z,19.4
2018-12-15T01:07:01.249Z,19.4
2018-12-15T01:12:06.258Z,17.3
2018-12-15T01:17:06.247Z,18.2
2018-12-15T01:22:11.270Z,18.7
2018-12-15T01:27:01.281Z,18.6
2018-12-15T01:32:01.266Z,18.6
2018-12-15T01:37:06.257Z,19.7
2018-12-15T01:42:06.244Z,19.0
2018-12-15T01:52:01.306Z,19.8
2018-12-15T01:57:01.284Z,20.0
2018-12-15T02:02:02.480Z,20.9
2018-12-15T02:07:01.246Z,21.0
2018-12-15T02:12:01.246Z,21.1
2018-12-15T02:17:01.249Z,20.6
2018-12-15T02:22:01.252Z,20.6
2018-12-15T02:27:01.259Z,19.4
2018-12-15T02:32:02.250Z,19.7
2018-12-15T02:37:01.236Z,20.4
2018-12-15T02:42:01.240Z,20.4
2018-12-15T02:47:01.239Z,20.5
2018-12-15T02:52:01.240Z,21.2
2018-12-15T02:57:01.242Z,21.0
2018-12-15T03:02:06.266Z,19.8
2018-12-15T03:07:01.277Z,19.0
2018-12-15T03:12:01.269Z,18.0
2018-12-15T03:17:01.277Z,17.6
2018-12-15T03:22:01.283Z,18.3
2018-12-15T03:27:01.286Z,17.2
2018-12-15T03:32:01.290Z,17.5
2018-12-15T03:37:01.280Z,17.6
2018-12-15T03:42:06.330Z,17.1
2018-12-15T03:47:01.257Z,16.0
2018-12-15T03:52:01.256Z,17.1
2018-12-15T03:57:01.255Z,16.0
2018-12-15T04:02:01.596Z,16.0
2018-12-15T04:07:01.255Z,16.2
2018-12-15T04:12:01.239Z,16.1
2018-12-15T04:17:01.646Z,15.8
2018-12-15T04:22:01.248Z,16.4
2018-12-15T04:35:00.752Z,14.0
2018-12-15T04:40:01.066Z,14.9
2018-12-15T04:45:00.775Z,15.0
2018-12-15T04:50:00.781Z,14.8
2018-12-15T04:55:00.778Z,16.0
2018-12-15T05:00:00.774Z,17.2
2018-12-15T05:05:00.918Z,17.0
2018-12-15T05:10:00.787Z,17.2
2018-12-15T05:15:00.777Z,17.4
2018-12-15T05:20:00.778Z,16.1
2018-12-15T05:25:00.793Z,15.3
2018-12-15T05:30:00.789Z,15.2
2018-12-15T05:35:01.124Z,15.2
2018-12-15T05:40:00.797Z,15.4
2018-12-15T05:45:00.796Z,15.7
2018-12-15T05:50:00.799Z,15.8
2018-12-15T05:55:00.807Z,16.7
2018-12-15T06:00:00.789Z,16.4
2018-12-15T06:05:00.768Z,16.2
2018-12-15T06:10:00.765Z,16.3
2018-12-15T06:15:00.796Z,16.1
2018-12-15T06:20:00.764Z,16.1
2018-12-15T06:25:02.281Z,15.5
2018-12-15T06:30:01.993Z,16.6
2018-12-15T06:35:00.769Z,16.7
2018-12-15T06:40:00.766Z,17.6
2018-12-15T06:45:00.769Z,17.1
2018-12-15T06:50:01.804Z,18.3
2018-12-15T06:55:00.798Z,18.0
2018-12-15T07:00:01.040Z,18.4
2018-12-15T07:05:00.828Z,18.5
2018-12-15T07:10:00.803Z,18.7
2018-12-15T07:15:00.780Z,18.8
2018-12-15T07:20:00.776Z,19.4
2018-12-15T07:25:00.780Z,20.2
2018-12-15T07:30:00.778Z,19.9
2018-12-15T07:35:01.522Z,20.5
2018-12-15T07:40:01.097Z,20.9
2018-12-15T07:45:00.786Z,21.4
2018-12-15T07:50:00.820Z,21.3
2018-12-15T07:55:00.810Z,22.7
2018-12-15T08:00:00.938Z,23.4
2018-12-15T08:05:00.821Z,23.4
2018-12-15T08:10:00.823Z,23.2
2018-12-15T08:15:00.912Z,23.5
2018-12-15T08:20:01.218Z,22.7
2018-12-15T08:25:02.233Z,23.1
2018-12-15T08:30:00.817Z,24.6
2018-12-15T08:35:00.830Z,25.6
2018-12-15T08:40:00.833Z,26.4
2018-12-15T08:45:00.819Z,26.8
2018-12-15T08:50:00.796Z,26.6
2018-12-15T08:55:00.826Z,25.5
2018-12-15T09:00:05.809Z,24.0
2018-12-15T09:05:05.822Z,22.3
2018-12-15T09:10:00.798Z,21.8
2018-12-15T09:15:00.801Z,19.7
2018-12-15T09:25:02.319Z,18.5
2018-12-15T09:30:00.776Z,18.1
2018-12-15T09:35:00.865Z,17.0
2018-12-15T09:40:00.843Z,17.6
2018-12-15T09:45:00.809Z,16.9
2018-12-15T09:50:01.236Z,15.7
2018-12-15T09:55:01.008Z,15.4
2018-12-15T10:00:02.129Z,15.6
2018-12-15T10:05:00.810Z,15.4
2018-12-15T10:10:00.811Z,14.7
2018-12-15T10:15:00.812Z,14.9
2018-12-15T10:20:00.811Z,14.8
2018-12-15T10:25:00.818Z,14.1
2018-12-15T10:30:05.833Z,13.5
2018-12-15T10:35:00.815Z,13.8
2018-12-15T10:40:00.819Z,14.3
2018-12-15T10:45:00.816Z,13.5
2018-12-15T10:50:01.040Z,13.2
2018-12-15T11:00:01.335Z,14.0
2018-12-15T11:05:00.846Z,14.1
2018-12-15T11:10:00.853Z,15.3
2018-12-15T11:15:00.857Z,16.8
2018-12-15T11:20:00.866Z,18.7
2018-12-15T11:25:00.925Z,19.7
2018-12-15T11:30:00.921Z,21.9
2018-12-15T11:35:00.855Z,22.9
2018-12-15T11:40:00.870Z,24.3
2018-12-15T11:45:00.918Z,24.7
2018-12-15T11:50:00.840Z,24.9
2018-12-15T12:00:00.926Z,26.9
2018-12-15T12:05:00.845Z,26.8
2018-12-15T12:10:00.840Z,27.0
2018-12-15T12:15:00.838Z,26.4
2018-12-15T12:20:00.848Z,25.4
2018-12-15T12:25:00.838Z,23.2
2018-12-15T12:30:05.855Z,21.5
2018-12-15T12:35:00.844Z,20.3
2018-12-15T12:40:00.809Z,19.7
2018-12-15T12:45:00.843Z,18.8
2018-12-15T12:50:00.849Z,18.3
2018-12-15T12:55:01.126Z,18.3
2018-12-15T13:00:01.882Z,18.6
2018-12-15T13:10:00.855Z,18.7
2018-12-15T13:15:00.849Z,18.6
2018-12-15T13:20:04.089Z,18.5
2018-12-15T13:25:00.862Z,18.3
2018-12-15T13:30:00.864Z,17.8
2018-12-15T13:35:00.872Z,17.3
2018-12-15T13:40:00.867Z,16.5
2018-12-15T13:45:00.868Z,16.1
2018-12-15T13:50:00.866Z,15.9
2018-12-15T13:55:01.321Z,15.8
2018-12-15T14:00:00.869Z,15.8
2018-12-15T14:05:00.995Z,16.4
2018-12-15T14:10:00.837Z,16.4
2018-12-15T14:15:00.934Z,15.6
2018-12-15T14:20:00.874Z,15.4
2018-12-15T14:25:01.130Z,16.3
2018-12-15T14:30:00.872Z,16.4
2018-12-15T14:35:00.882Z,17.7
2018-12-15T14:40:00.876Z,19.6
2018-12-15T14:45:01.004Z,20.9
2018-12-15T14:50:00.888Z,21.0
2018-12-15T14:55:01.150Z,22.8
2018-12-15T15:00:01.980Z,23.1
2018-12-15T15:05:00.885Z,23.0
2018-12-15T15:10:01.920Z,21.3
2018-12-15T15:15:00.956Z,21.9
2018-12-15T15:20:00.890Z,20.4
2018-12-15T15:25:00.956Z,21.0
2018-12-15T15:30:00.879Z,21.6
2018-12-15T15:35:01.014Z,23.5
2018-12-15T15:40:00.883Z,22.2
2018-12-15T15:45:00.948Z,22.5
2018-12-15T15:50:00.885Z,21.4
2018-12-15T15:55:00.926Z,20.3
2018-12-15T16:00:00.888Z,20.0
2018-12-15T16:05:02.561Z,20.8
2018-12-15T16:10:00.884Z,20.6
2018-12-15T16:15:01.016Z,20.3
2018-12-15T16:20:00.893Z,19.8
2018-12-15T16:25:00.895Z,19.5
2018-12-15T16:30:01.018Z,18.8
2018-12-15T16:35:02.243Z,19.2
2018-12-15T16:40:00.894Z,18.3
2018-12-15T16:45:00.892Z,18.2
2018-12-15T16:50:00.891Z,18.1
2018-12-15T16:55:00.963Z,17.7
2018-12-15T17:00:00.896Z,16.5
2018-12-15T17:05:01.476Z,17.2
2018-12-15T17:10:00.896Z,17.0
2018-12-15T17:15:01.021Z,16.9
2018-12-15T17:20:00.900Z,18.0
2018-12-15T17:25:00.904Z,18.9
2018-12-15T17:30:00.905Z,18.0
2018-12-15T17:35:00.901Z,18.4
2018-12-15T17:40:00.908Z,18.4
2018-12-15T17:45:01.034Z,17.6
2018-12-15T17:50:00.882Z,16.9
2018-12-15T17:55:00.930Z,17.4
2018-12-15T18:00:01.161Z,16.5
2018-12-15T18:05:00.909Z,15.9
2018-12-15T18:10:00.886Z,15.6
2018-12-15T18:15:01.039Z,15.2
2018-12-15T18:20:00.914Z,15.0
2018-12-15T18:25:00.915Z,15.2
2018-12-15T18:30:00.913Z,15.4
2018-12-15T18:35:01.005Z,14.8
2018-12-15T18:40:00.917Z,15.5
2018-12-15T18:45:01.048Z,15.7
2018-12-15T18:55:01.050Z,16.8
2018-12-15T19:00:00.934Z,18.1
2018-12-15T19:10:01.053Z,18.0
2018-12-15T19:15:00.990Z,17.6
2018-12-15T19:20:00.929Z,17.1
2018-12-15T19:25:01.315Z,16.8
2018-12-15T19:30:01.753Z,16.5
2018-12-15T19:35:01.028Z,16.4
2018-12-15T19:40:00.957Z,17.2
2018-12-15T19:45:00.959Z,17.0
2018-12-15T19:50:00.967Z,16.6
2018-12-15T19:55:01.066Z,16.1
2018-12-15T20:00:00.914Z,16.2
2018-12-15T20:05:01.304Z,15.4
2018-12-15T20:10:00.964Z,15.6
2018-12-15T20:15:01.100Z,15.5
2018-12-15T20:20:00.969Z,16.2
2018-12-15T20:25:01.042Z,16.0
2018-12-15T20:30:00.969Z,16.8
2018-12-15T20:35:01.041Z,16.6
2018-12-15T20:40:00.983Z,16.6
2018-12-15T20:45:01.107Z,16.2
2018-12-15T20:50:00.980Z,15.9
2018-12-15T20:55:01.479Z,15.2
2018-12-15T21:00:02.314Z,14.8
2018-12-15T21:05:01.014Z,15.0
2018-12-15T21:10:00.948Z,15.1
2018-12-15T21:15:01.081Z,14.1
2018-12-15T21:20:00.978Z,14.7
2018-12-15T21:25:01.411Z,14.5
2018-12-15T21:30:01.298Z,13.8
2018-12-15T21:35:01.021Z,13.5
2018-12-15T21:40:00.959Z,13.4
2018-12-15T21:45:00.959Z,13.0
2018-12-15T21:55:00.959Z,13.6
2018-12-15T22:00:00.969Z,13.3
2018-12-15T22:05:01.091Z,13.5
2018-12-15T22:10:00.972Z,12.6
2018-12-15T22:15:01.557Z,13.0
2018-12-15T22:20:01.330Z,13.5
2018-12-15T22:25:01.462Z,13.8
2018-12-15T22:30:00.972Z,14.6
2018-12-15T22:35:01.138Z,15.1
2018-12-15T22:40:00.905Z,14.0
2018-12-15T22:45:01.041Z,14.3
2018-12-15T22:50:01.119Z,14.8
2018-12-15T22:55:02.428Z,14.6
2018-12-15T23:00:00.997Z,15.2
2018-12-15T23:05:01.113Z,15.7
2018-12-15T23:10:00.978Z,14.8
2018-12-15T23:15:00.985Z,14.2
2018-12-15T23:20:00.982Z,14.8
2018-12-15T23:25:01.046Z,14.2
2018-12-15T23:30:00.991Z,13.6
2018-12-15T23:35:01.112Z,14.8
2018-12-15T23:40:00.985Z,15.5
2018-12-15T23:45:01.056Z,15.8
2018-12-15T23:50:00.987Z,16.1
2018-12-15T23:55:01.146Z,16.6
